createdAt,value
2019-03-01T00:00:17.795Z,17.10
2019-03-01T00:01:17.791Z,18.70
2019-03-01T00:02:17.786Z,15.30
2019-03-01T00:03:17.783Z,25.20
2019-03-01T00:04:17.777Z,14.40
2019-03-01T00:05:17.780Z,16.20
2019-03-01T00:06:17.769Z,14.10
2019-03-01T00:07:17.764Z,22.40
2019-03-01T00:08:17.762Z,18.40
2019-03-01T00:09:17.756Z,20.00
2019-03-01T00:10:17.752Z,17.70
2019-03-01T00:11:17.748Z,16.80
2019-03-01T00:12:17.742Z,19.20
2019-03-01T00:13:17.738Z,15.30
2019-03-01T00:14:17.735Z,22.00
2019-03-01T00:15:17.731Z,14.10
2019-03-01T00:16:17.726Z,14.20
2019-03-01T00:17:17.723Z,17.60
2019-03-01T00:18:17.718Z,22.30
2019-03-01T00:19:17.715Z,23.70
2019-03-01T00:20:17.709Z,17.50
2019-03-01T00:21:17.704Z,14.80
2019-03-01T00:22:17.700Z,16.50
2019-03-01T00:23:17.698Z,22.00
2019-03-01T00:24:17.690Z,20.70
2019-03-01T00:25:17.688Z,16.30
2019-03-01T00:26:17.684Z,21.10
2019-03-01T00:27:17.680Z,18.90
2019-03-01T00:28:17.674Z,16.50
2019-03-01T00:29:17.670Z,20.80
2019-03-01T00:30:17.666Z,22.10
2019-03-01T00:31:17.660Z,17.20
2019-03-01T00:32:17.655Z,14.40
2019-03-01T00:33:17.651Z,21.10
2019-03-01T00:34:17.648Z,17.70
2019-03-01T00:35:17.644Z,21.90
2019-03-01T00:36:17.639Z,22.80
2019-03-01T00:37:17.634Z,18.00
2019-03-01T00:38:17.633Z,18.80
2019-03-01T00:39:17.631Z,16.60
2019-03-01T00:40:17.622Z,24.90
2019-03-01T00:41:17.618Z,16.10
2019-03-01T00:42:17.614Z,21.60
2019-03-01T00:43:17.608Z,27.20
2019-03-01T00:44:17.603Z,21.50
2019-03-01T00:45:17.600Z,18.70
2019-03-01T00:46:17.602Z,19.80
2019-03-01T00:47:17.592Z,20.90
2019-03-01T00:48:17.587Z,19.00
2019-03-01T00:49:17.584Z,31.10
2019-03-01T00:50:17.579Z,19.10
2019-03-01T00:51:17.574Z,23.40
2019-03-01T00:52:17.571Z,21.80
2019-03-01T00:53:17.567Z,18.70
2019-03-01T00:54:17.561Z,21.50
2019-03-01T00:55:17.556Z,24.40
2019-03-01T00:56:17.551Z,19.80
2019-03-01T00:57:17.548Z,25.70
2019-03-01T00:58:17.542Z,23.20
2019-03-01T00:59:17.544Z,17.30
2019-03-01T01:00:17.534Z,20.50
2019-03-01T01:01:17.530Z,21.20
2019-03-01T01:02:17.526Z,22.20
2019-03-01T01:03:17.521Z,17.80
2019-03-01T01:04:17.516Z,17.90
2019-03-01T01:05:17.512Z,22.20
2019-03-01T01:06:17.507Z,18.80
2019-03-01T01:07:17.505Z,23.20
2019-03-01T01:08:17.499Z,24.20
2019-03-01T01:09:17.496Z,20.20
2019-03-01T01:10:17.491Z,19.80
2019-03-01T01:11:17.487Z,23.10
2019-03-01T01:12:17.481Z,17.70
2019-03-01T01:13:17.476Z,21.00
2019-03-01T01:14:17.472Z,22.40
2019-03-01T01:15:17.472Z,25.10
2019-03-01T01:16:17.466Z,22.40
2019-03-01T01:17:17.458Z,21.90
2019-03-01T01:18:17.455Z,20.80
2019-03-01T01:19:17.452Z,20.80
2019-03-01T01:20:17.446Z,23.60
2019-03-01T01:21:17.441Z,22.80
2019-03-01T01:22:17.437Z,21.40
2019-03-01T01:23:17.435Z,27.00
2019-03-01T01:24:17.427Z,27.10
2019-03-01T01:25:17.424Z,24.70
2019-03-01T01:26:17.422Z,17.30
2019-03-01T01:27:17.416Z,21.90
2019-03-01T01:28:17.414Z,24.80
2019-03-01T01:29:17.406Z,24.60
2019-03-01T01:30:17.402Z,24.10
2019-03-01T01:31:17.400Z,22.20
2019-03-01T01:32:17.393Z,25.20
2019-03-01T01:33:17.390Z,22.40
2019-03-01T01:34:17.388Z,26.30
2019-03-01T01:35:17.383Z,17.50
2019-03-01T01:36:17.376Z,23.70
2019-03-01T01:37:17.378Z,24.10
2019-03-01T01:38:17.368Z,23.50
2019-03-01T01:39:17.363Z,25.60
2019-03-01T01:40:17.359Z,20.30
2019-03-01T01:41:17.356Z,24.20
2019-03-01T01:42:17.349Z,25.50
2019-03-01T01:43:17.345Z,21.70
2019-03-01T01:44:17.343Z,20.20
2019-03-01T01:45:17.337Z,22.80
2019-03-01T01:46:17.333Z,24.40
2019-03-01T01:47:17.330Z,25.60
2019-03-01T01:48:17.323Z,21.90
2019-03-01T01:49:17.318Z,21.90
2019-03-01T01:50:17.315Z,26.40
2019-03-01T01:51:17.311Z,23.80
2019-03-01T01:52:17.310Z,24.10
2019-03-01T01:53:17.303Z,31.20
2019-03-01T01:54:17.298Z,24.90
2019-03-01T01:55:17.293Z,33.70
2019-03-01T01:56:17.287Z,27.00
2019-03-01T01:57:17.285Z,23.90
2019-03-01T01:58:17.279Z,26.50
2019-03-01T01:59:17.280Z,28.80
2019-03-01T02:00:17.280Z,25.00
2019-03-01T02:01:17.267Z,21.40
2019-03-01T02:02:17.266Z,23.10
2019-03-01T02:03:17.258Z,25.90
2019-03-01T02:04:17.252Z,24.00
2019-03-01T02:05:17.249Z,32.90
2019-03-01T02:06:17.245Z,26.10
2019-03-01T02:07:17.240Z,26.90
2019-03-01T02:08:17.236Z,27.70
2019-03-01T02:09:17.231Z,27.10
2019-03-01T02:10:17.227Z,32.00
2019-03-01T02:11:17.225Z,26.30
2019-03-01T02:12:17.217Z,33.50
2019-03-01T02:13:17.215Z,27.60
2019-03-01T02:14:17.209Z,30.50
2019-03-01T02:15:17.210Z,25.00
2019-03-01T02:16:17.198Z,25.40
2019-03-01T02:17:17.195Z,30.70
2019-03-01T02:18:17.191Z,29.70
2019-03-01T02:19:17.196Z,28.20
2019-03-01T02:20:17.187Z,30.10
2019-03-01T02:21:17.178Z,29.10
2019-03-01T02:22:17.175Z,30.30
2019-03-01T02:23:17.170Z,21.70
2019-03-01T02:24:17.165Z,24.10
2019-03-01T02:25:17.163Z,27.00
2019-03-01T02:26:17.158Z,31.90
2019-03-01T02:27:17.151Z,28.10
2019-03-01T02:28:17.146Z,29.30
2019-03-01T02:29:17.143Z,25.30
2019-03-01T02:30:17.138Z,32.70
2019-03-01T02:31:17.135Z,32.10
2019-03-01T02:32:17.129Z,27.30
2019-03-01T02:33:17.125Z,28.10
2019-03-01T02:34:17.121Z,26.10
2019-03-01T02:35:17.119Z,26.30
2019-03-01T02:36:17.113Z,24.90
2019-03-01T02:37:17.107Z,29.70
2019-03-01T02:38:17.104Z,31.20
2019-03-01T02:39:17.104Z,26.80
2019-03-01T02:40:17.097Z,29.80
2019-03-01T02:41:17.094Z,25.20
2019-03-01T02:42:17.085Z,26.10
2019-03-01T02:43:17.081Z,25.40
2019-03-01T02:44:17.077Z,27.00
2019-03-01T02:45:17.072Z,26.30
2019-03-01T02:46:17.068Z,27.10
2019-03-01T02:47:17.065Z,25.70
2019-03-01T02:48:17.059Z,24.50
2019-03-01T02:49:17.055Z,32.40
2019-03-01T02:50:17.051Z,26.90
2019-03-01T02:51:17.048Z,26.80
2019-03-01T02:52:17.042Z,25.50
2019-03-01T02:53:17.047Z,20.60
2019-03-01T02:54:17.033Z,27.60
2019-03-01T02:55:17.029Z,32.10
2019-03-01T02:56:17.025Z,23.20
2019-03-01T02:57:17.019Z,29.30
2019-03-01T02:58:17.015Z,24.80
2019-03-01T02:59:17.018Z,23.10
2019-03-01T03:00:17.006Z,33.10
2019-03-01T03:01:17.013Z,24.60
2019-03-01T03:02:16.998Z,23.70
2019-03-01T03:03:16.995Z,22.90
2019-03-01T03:04:16.988Z,24.80
2019-03-01T03:05:16.987Z,24.50
2019-03-01T03:06:16.980Z,28.20
2019-03-01T03:07:16.976Z,27.70
2019-03-01T03:08:16.974Z,24.40
2019-03-01T03:09:16.967Z,27.30
2019-03-01T03:10:16.964Z,32.40
2019-03-01T03:11:16.965Z,24.90
2019-03-01T03:12:16.952Z,29.60
2019-03-01T03:13:16.949Z,24.50
2019-03-01T03:14:16.944Z,26.10
2019-03-01T03:15:16.941Z,25.30
2019-03-01T03:16:16.935Z,26.70
2019-03-01T03:17:16.931Z,24.20
2019-03-01T03:18:16.931Z,29.80
2019-03-01T03:19:16.923Z,22.40
2019-03-01T03:20:16.918Z,26.40
2019-03-01T03:21:16.913Z,24.40
2019-03-01T03:22:16.912Z,21.50
2019-03-01T03:23:16.908Z,28.20
2019-03-01T03:24:16.900Z,27.90
2019-03-01T03:25:16.897Z,24.00
2019-03-01T03:26:16.893Z,25.20
2019-03-01T03:27:16.889Z,23.20
2019-03-01T03:28:16.883Z,24.20
2019-03-01T03:29:16.883Z,26.20
2019-03-01T03:30:16.876Z,26.80
2019-03-01T03:31:16.887Z,26.70
2019-03-01T03:32:16.867Z,25.20
2019-03-01T03:33:16.862Z,23.30
2019-03-01T03:34:16.864Z,25.40
2019-03-01T03:35:16.855Z,27.30
2019-03-01T03:36:16.848Z,20.80
2019-03-01T03:37:16.844Z,25.20
2019-03-01T03:38:16.841Z,26.40
2019-03-01T03:39:16.837Z,24.60
2019-03-01T03:40:16.831Z,23.50
2019-03-01T03:41:16.826Z,22.40
2019-03-01T03:42:16.825Z,28.00
2019-03-01T03:43:16.818Z,24.00
2019-03-01T03:44:16.813Z,32.00
2019-03-01T03:45:16.809Z,26.90
2019-03-01T03:46:16.808Z,23.20
2019-03-01T03:47:16.799Z,27.80
2019-03-01T03:48:16.821Z,27.50
2019-03-01T03:49:16.802Z,26.40
2019-03-01T03:50:16.785Z,24.90
2019-03-01T03:51:16.783Z,27.20
2019-03-01T03:52:16.778Z,24.60
2019-03-01T03:53:16.773Z,28.60
2019-03-01T03:54:16.769Z,29.00
2019-03-01T03:55:16.766Z,21.90
2019-03-01T03:56:16.760Z,28.70
2019-03-01T03:57:16.754Z,24.40
2019-03-01T03:58:16.752Z,28.70
2019-03-01T03:59:16.748Z,27.30
2019-03-01T04:00:16.747Z,29.50
2019-03-01T04:01:16.737Z,24.00
2019-03-01T04:02:16.734Z,24.40
2019-03-01T04:03:16.731Z,22.40
2019-03-01T04:04:16.724Z,25.10
2019-03-01T04:05:16.719Z,25.10
2019-03-01T04:06:16.717Z,27.00
2019-03-01T04:07:16.711Z,22.80
2019-03-01T04:08:16.707Z,24.40
2019-03-01T04:09:16.703Z,26.10
2019-03-01T04:10:16.698Z,25.90
2019-03-01T04:11:16.696Z,23.20
2019-03-01T04:12:16.687Z,27.00
2019-03-01T04:13:16.921Z,22.50
2019-03-01T04:14:16.681Z,29.80
2019-03-01T04:15:16.695Z,21.80
2019-03-01T04:16:16.676Z,26.40
2019-03-01T04:17:16.677Z,24.30
2019-03-01T04:18:16.663Z,25.50
2019-03-01T04:19:16.659Z,24.60
2019-03-01T04:20:16.654Z,24.40
2019-03-01T04:21:16.653Z,20.20
2019-03-01T04:22:16.644Z,26.40
2019-03-01T04:23:16.642Z,23.40
2019-03-01T04:24:16.642Z,23.80
2019-03-01T04:25:16.632Z,24.70
2019-03-01T04:26:16.627Z,25.40
2019-03-01T04:27:16.623Z,22.30
2019-03-01T04:28:16.618Z,25.20
2019-03-01T04:29:16.615Z,31.80
2019-03-01T04:30:16.609Z,24.30
2019-03-01T04:31:16.605Z,23.30
2019-03-01T04:32:16.598Z,27.20
2019-03-01T04:33:16.600Z,29.20
2019-03-01T04:34:16.593Z,28.60
2019-03-01T04:35:16.587Z,21.50
2019-03-01T04:36:16.581Z,28.70
2019-03-01T04:37:16.577Z,28.60
2019-03-01T04:38:16.573Z,23.70
2019-03-01T04:39:16.568Z,24.20
2019-03-01T04:40:16.563Z,27.40
2019-03-01T04:41:16.559Z,27.10
2019-03-01T04:42:16.554Z,27.00
2019-03-01T04:43:16.551Z,23.20
2019-03-01T04:44:16.544Z,28.40
2019-03-01T04:45:16.540Z,26.20
2019-03-01T04:46:16.537Z,28.10
2019-03-01T04:47:16.532Z,26.20
2019-03-01T04:48:16.528Z,25.70
2019-03-01T04:49:16.525Z,20.70
2019-03-01T04:50:16.521Z,23.00
2019-03-01T04:51:16.516Z,22.00
2019-03-01T04:52:16.511Z,25.60
2019-03-01T04:53:16.505Z,23.10
2019-03-01T04:54:16.502Z,29.80
2019-03-01T04:55:16.496Z,23.20
2019-03-01T04:56:16.492Z,30.70
2019-03-01T04:57:16.487Z,23.50
2019-03-01T04:58:16.483Z,27.00
2019-03-01T04:59:16.480Z,28.40
2019-03-01T05:00:16.474Z,27.40
2019-03-01T05:01:16.473Z,27.00
2019-03-01T05:02:16.469Z,26.50
2019-03-01T05:03:16.464Z,24.30
2019-03-01T05:04:16.456Z,25.80
2019-03-01T05:05:16.455Z,21.70
2019-03-01T05:06:16.448Z,24.70
2019-03-01T05:07:16.443Z,23.20
2019-03-01T05:08:16.439Z,24.50
2019-03-01T05:09:16.435Z,23.60
2019-03-01T05:10:16.431Z,31.10
2019-03-01T05:11:16.429Z,27.10
2019-03-01T05:12:16.422Z,32.90
2019-03-01T05:13:16.419Z,25.90
2019-03-01T05:14:16.413Z,24.90
2019-03-01T05:15:16.408Z,25.80
2019-03-01T05:16:16.404Z,25.00
2019-03-01T05:17:16.399Z,31.90
2019-03-01T05:18:16.395Z,26.30
2019-03-01T05:19:16.390Z,27.10
2019-03-01T05:20:16.388Z,28.20
2019-03-01T05:21:16.381Z,29.50
2019-03-01T05:22:16.378Z,27.70
2019-03-01T05:23:16.373Z,26.30
2019-03-01T05:24:16.368Z,32.20
2019-03-01T05:25:16.364Z,28.00
2019-03-01T05:26:16.361Z,23.70
2019-03-01T05:27:16.360Z,27.60
2019-03-01T05:28:16.349Z,25.70
2019-03-01T05:29:16.347Z,21.20
2019-03-01T05:30:16.341Z,28.00
2019-03-01T05:31:16.339Z,29.00
2019-03-01T05:32:16.331Z,30.40
2019-03-01T05:33:16.327Z,34.10
2019-03-01T05:34:16.324Z,24.20
2019-03-01T05:35:16.323Z,27.50
2019-03-01T05:36:16.313Z,25.30
2019-03-01T05:37:16.310Z,26.30
2019-03-01T05:38:21.723Z,27.30
2019-03-01T05:39:16.300Z,25.30
2019-03-01T05:40:16.296Z,28.60
2019-03-01T05:41:16.291Z,29.00
2019-03-01T05:42:16.287Z,27.90
2019-03-01T05:43:16.283Z,27.00
2019-03-01T05:44:16.284Z,26.30
2019-03-01T05:45:16.273Z,28.00
2019-03-01T05:46:16.272Z,31.00
2019-03-01T05:47:16.268Z,28.10
2019-03-01T05:48:16.259Z,34.30
2019-03-01T05:49:16.255Z,36.50
2019-03-01T05:50:16.254Z,29.50
2019-03-01T05:51:16.246Z,28.10
2019-03-01T05:52:16.240Z,27.10
2019-03-01T05:53:16.237Z,23.40
2019-03-01T05:54:16.231Z,22.10
2019-03-01T05:55:16.227Z,23.00
2019-03-01T05:56:16.221Z,28.00
2019-03-01T05:57:16.219Z,26.10
2019-03-01T05:58:16.731Z,27.10
2019-03-01T05:59:16.213Z,25.00
2019-03-01T06:00:16.205Z,21.10
2019-03-01T06:01:16.201Z,27.50
2019-03-01T06:02:16.196Z,28.10
2019-03-01T06:03:16.190Z,34.50
2019-03-01T06:04:16.185Z,34.70
2019-03-01T06:05:16.182Z,33.30
2019-03-01T06:06:16.176Z,31.10
2019-03-01T06:07:16.172Z,32.70
2019-03-01T06:08:16.167Z,35.40
2019-03-01T06:09:16.163Z,36.30
2019-03-01T06:10:16.159Z,29.70
2019-03-01T06:11:16.154Z,34.50
2019-03-01T06:12:16.149Z,37.40
2019-03-01T06:13:16.145Z,30.00
2019-03-01T06:14:16.141Z,33.40
2019-03-01T06:15:16.137Z,34.00
2019-03-01T06:16:16.130Z,37.60
2019-03-01T06:17:16.128Z,36.20
2019-03-01T06:18:16.121Z,41.20
2019-03-01T06:19:16.117Z,36.80
2019-03-01T06:20:16.112Z,41.20
2019-03-01T06:21:16.108Z,43.20
2019-03-01T06:22:16.102Z,44.30
2019-03-01T06:23:16.099Z,36.20
2019-03-01T06:24:16.094Z,47.80
2019-03-01T06:25:16.090Z,45.20
2019-03-01T06:26:16.099Z,42.70
2019-03-01T06:27:16.463Z,42.90
2019-03-01T06:28:16.076Z,41.30
2019-03-01T06:29:16.070Z,37.20
2019-03-01T06:30:16.067Z,37.00
2019-03-01T06:31:16.061Z,47.10
2019-03-01T06:32:16.056Z,44.00
2019-03-01T06:33:16.051Z,42.80
2019-03-01T06:34:16.048Z,42.20
2019-03-01T06:35:16.044Z,47.60
2019-03-01T06:36:16.037Z,46.50
2019-03-01T06:37:16.034Z,47.20
2019-03-01T06:38:16.185Z,48.40
2019-03-01T06:39:16.035Z,49.70
2019-03-01T06:40:16.023Z,47.80
2019-03-01T06:41:16.016Z,42.50
2019-03-01T06:42:16.010Z,47.60
2019-03-01T06:43:16.006Z,45.70
2019-03-01T06:44:16.000Z,48.10
2019-03-01T06:45:15.997Z,47.90
2019-03-01T06:46:15.992Z,44.10
2019-03-01T06:47:15.988Z,50.30
2019-03-01T06:48:15.983Z,42.60
2019-03-01T06:49:15.982Z,41.50
2019-03-01T06:50:15.979Z,50.50
2019-03-01T06:51:15.976Z,51.60
2019-03-01T06:52:15.965Z,46.90
2019-03-01T06:53:15.961Z,51.90
2019-03-01T06:54:15.957Z,49.80
2019-03-01T06:55:15.952Z,43.30
2019-03-01T06:56:15.949Z,48.80
2019-03-01T06:57:15.941Z,51.50
2019-03-01T06:58:15.938Z,44.20
2019-03-01T06:59:15.933Z,43.10
2019-03-01T07:00:15.928Z,52.10
2019-03-01T07:01:15.924Z,48.30
2019-03-01T07:02:15.920Z,42.20
2019-03-01T07:03:15.916Z,50.00
2019-03-01T07:04:15.910Z,45.40
2019-03-01T07:05:15.906Z,52.80
2019-03-01T07:06:15.901Z,53.30
2019-03-01T07:07:15.897Z,49.10
2019-03-01T07:08:15.894Z,48.50
2019-03-01T07:09:15.890Z,54.70
2019-03-01T07:10:15.882Z,52.80
2019-03-01T07:11:15.878Z,46.30
2019-03-01T07:12:15.873Z,51.80
2019-03-01T07:13:15.871Z,43.60
2019-03-01T07:14:15.864Z,47.60
2019-03-01T07:15:15.859Z,50.10
2019-03-01T07:16:15.856Z,54.70
2019-03-01T07:17:15.850Z,51.00
2019-03-01T07:18:15.847Z,55.10
2019-03-01T07:19:15.854Z,62.10
2019-03-01T07:20:15.836Z,54.10
2019-03-01T07:21:15.833Z,59.30
2019-03-01T07:22:15.828Z,57.80
2019-03-01T07:23:15.823Z,50.00
2019-03-01T07:24:15.917Z,54.00
2019-03-01T07:25:15.814Z,57.20
2019-03-01T07:26:15.811Z,63.40
2019-03-01T07:27:15.806Z,52.60
2019-03-01T07:28:15.799Z,57.40
2019-03-01T07:29:15.796Z,52.00
2019-03-01T07:30:15.798Z,63.00
2019-03-01T07:31:15.786Z,63.90
2019-03-01T07:32:15.783Z,58.30
2019-03-01T07:33:15.776Z,62.60
2019-03-01T07:34:15.772Z,58.30
2019-03-01T07:35:15.768Z,66.80
2019-03-01T07:36:15.763Z,55.00
2019-03-01T07:37:15.759Z,57.00
2019-03-01T07:38:15.753Z,57.30
2019-03-01T07:39:15.750Z,51.20
2019-03-01T07:40:15.745Z,60.40
2019-03-01T07:41:15.739Z,62.90
2019-03-01T07:42:15.735Z,60.70
2019-03-01T07:43:15.732Z,64.50
2019-03-01T07:44:15.725Z,65.60
2019-03-01T07:45:15.721Z,56.40
2019-03-01T07:46:15.716Z,60.50
2019-03-01T07:47:15.713Z,59.00
2019-03-01T07:48:15.706Z,59.80
2019-03-01T07:49:15.701Z,60.10
2019-03-01T07:50:15.698Z,60.70
2019-03-01T07:51:15.693Z,64.20
2019-03-01T07:52:15.688Z,66.70
2019-03-01T07:53:15.683Z,62.70
2019-03-01T07:54:16.820Z,70.40
2019-03-01T07:55:15.674Z,47.80
2019-03-01T07:56:15.670Z,52.50
2019-03-01T07:57:15.697Z,64.20
2019-03-01T07:58:15.660Z,43.70
2019-03-01T07:59:15.657Z,42.90
2019-03-01T08:00:15.649Z,45.20
2019-03-01T08:01:15.647Z,37.30
2019-03-01T08:02:15.641Z,40.10
2019-03-01T08:03:15.985Z,37.00
2019-03-01T08:04:15.631Z,41.00
2019-03-01T08:05:16.374Z,47.90
2019-03-01T08:06:15.622Z,42.80
2019-03-01T08:07:15.617Z,40.60
2019-03-01T08:08:15.611Z,43.70
2019-03-01T08:09:15.611Z,42.00
2019-03-01T08:10:20.564Z,35.80
2019-03-01T08:11:15.597Z,47.70
2019-03-01T08:12:15.592Z,50.30
2019-03-01T08:13:17.664Z,54.30
2019-03-01T08:14:15.587Z,48.10
2019-03-01T08:15:15.577Z,45.20
2019-03-01T08:16:16.574Z,45.30
2019-03-01T08:17:15.568Z,42.40
2019-03-01T08:18:15.572Z,43.10
2019-03-01T08:19:17.041Z,37.70
2019-03-01T08:20:15.555Z,36.00
2019-03-01T08:21:15.554Z,35.40
2019-03-01T08:22:15.547Z,31.30
2019-03-01T08:23:15.542Z,24.70
2019-03-01T08:24:15.537Z,23.20
2019-03-01T08:25:22.511Z,25.20
2019-03-01T08:26:15.526Z,22.40
2019-03-01T08:27:15.523Z,22.10
2019-03-01T08:28:18.583Z,32.20
2019-03-01T08:29:15.512Z,34.90
2019-03-01T08:30:15.510Z,35.60
2019-03-01T08:31:17.517Z,28.20
2019-03-01T08:32:15.498Z,31.10
2019-03-01T08:33:15.498Z,29.90
2019-03-01T08:34:17.938Z,29.60
2019-03-01T08:35:15.486Z,27.30
2019-03-01T08:36:15.478Z,25.30
2019-03-01T08:37:17.567Z,31.50
2019-03-01T08:38:15.470Z,35.20
2019-03-01T08:39:15.467Z,35.60
2019-03-01T08:40:15.626Z,36.80
2019-03-01T08:41:15.456Z,29.90
2019-03-01T08:42:15.452Z,32.70
2019-03-01T08:43:15.447Z,36.70
2019-03-01T08:44:15.441Z,36.10
2019-03-01T08:45:15.438Z,35.50
2019-03-01T08:46:15.434Z,35.30
2019-03-01T08:47:20.293Z,34.20
2019-03-01T08:48:15.423Z,35.50
2019-03-01T08:49:15.420Z,39.60
2019-03-01T08:50:15.416Z,34.60
2019-03-01T08:51:15.410Z,36.10
2019-03-01T08:52:15.405Z,43.00
2019-03-01T08:53:16.168Z,38.20
2019-03-01T08:54:15.396Z,33.70
2019-03-01T08:55:15.393Z,33.20
2019-03-01T08:56:15.531Z,36.80
2019-03-01T08:57:15.382Z,32.50
2019-03-01T08:58:15.378Z,36.50
2019-03-01T08:59:17.594Z,33.00
2019-03-01T09:00:15.370Z,32.30
2019-03-01T09:01:15.365Z,31.80
2019-03-01T09:02:15.361Z,29.90
2019-03-01T09:03:16.335Z,27.80
2019-03-01T09:04:17.440Z,23.60
2019-03-01T09:05:15.346Z,26.70
2019-03-01T09:06:15.342Z,29.30
2019-03-01T09:07:15.339Z,28.50
2019-03-01T09:08:15.330Z,36.60
2019-03-01T09:09:17.725Z,40.80
2019-03-01T09:10:15.323Z,41.00
2019-03-01T09:11:15.317Z,36.30
2019-03-01T09:12:15.317Z,34.10
2019-03-01T09:13:15.309Z,44.20
2019-03-01T09:14:15.305Z,37.30
2019-03-01T09:15:15.302Z,40.00
2019-03-01T09:16:15.295Z,41.90
2019-03-01T09:17:15.291Z,44.40
2019-03-01T09:18:15.427Z,40.90
2019-03-01T09:19:15.280Z,42.60
2019-03-01T09:20:15.275Z,44.60
2019-03-01T09:21:15.272Z,46.90
2019-03-01T09:22:15.266Z,47.80
2019-03-01T09:23:22.795Z,48.80
2019-03-01T09:24:15.258Z,53.20
2019-03-01T09:25:15.251Z,43.70
2019-03-01T09:26:16.694Z,47.30
2019-03-01T09:27:15.243Z,51.70
2019-03-01T09:28:15.239Z,50.90
2019-03-01T09:29:18.467Z,53.10
2019-03-01T09:30:15.230Z,53.70
2019-03-01T09:31:15.223Z,49.40
2019-03-01T09:32:15.218Z,49.80
2019-03-01T09:33:17.145Z,51.00
2019-03-01T09:34:15.211Z,49.20
2019-03-01T09:35:15.205Z,54.80
2019-03-01T09:36:18.053Z,56.10
2019-03-01T09:37:15.196Z,51.50
2019-03-01T09:38:15.190Z,57.10
2019-03-01T09:39:18.100Z,56.50
2019-03-01T09:40:15.181Z,59.00
2019-03-01T09:41:15.178Z,50.70
2019-03-01T09:42:15.621Z,56.60
2019-03-01T09:43:15.169Z,51.50
2019-03-01T09:44:15.164Z,55.00
2019-03-01T09:45:15.158Z,54.00
2019-03-01T09:46:15.159Z,50.40
2019-03-01T09:47:15.149Z,52.10
2019-03-01T09:48:15.144Z,53.40
2019-03-01T09:49:15.139Z,44.80
2019-03-01T09:50:15.135Z,45.90
2019-03-01T09:51:15.920Z,46.20
2019-03-01T09:52:15.126Z,49.70
2019-03-01T09:53:15.123Z,43.20
2019-03-01T09:54:15.118Z,45.50
2019-03-01T09:55:15.114Z,47.80
2019-03-01T09:56:15.108Z,49.00
2019-03-01T09:57:15.668Z,46.50
2019-03-01T09:58:15.104Z,56.70
2019-03-01T09:59:15.093Z,51.60
2019-03-01T10:00:15.089Z,51.80
2019-03-01T10:01:15.085Z,55.30
2019-03-01T10:02:15.080Z,55.70
2019-03-01T10:03:15.074Z,57.00
2019-03-01T10:04:15.069Z,52.60
2019-03-01T10:05:15.067Z,56.70
2019-03-01T10:06:15.060Z,61.10
2019-03-01T10:07:15.057Z,52.20
2019-03-01T10:08:15.051Z,49.50
2019-03-01T10:09:15.055Z,64.30
2019-03-01T10:10:15.042Z,63.30
2019-03-01T10:11:15.036Z,55.50
2019-03-01T10:12:15.031Z,57.80
2019-03-01T10:13:15.027Z,56.60
2019-03-01T10:14:15.023Z,54.60
2019-03-01T10:15:15.019Z,47.70
2019-03-01T10:16:15.012Z,47.40
2019-03-01T10:17:15.005Z,46.60
2019-03-01T10:18:15.006Z,45.20
2019-03-01T10:19:14.998Z,46.60
2019-03-01T10:20:14.992Z,45.50
2019-03-01T10:21:14.988Z,39.50
2019-03-01T10:22:14.983Z,34.70
2019-03-01T10:23:14.979Z,32.60
2019-03-01T10:24:14.974Z,37.80
2019-03-01T10:25:14.969Z,23.90
2019-03-01T10:26:14.965Z,31.50
2019-03-01T10:27:14.958Z,35.30
2019-03-01T10:28:14.953Z,31.00
2019-03-01T10:29:14.948Z,27.70
2019-03-01T10:30:14.944Z,30.40
2019-03-01T10:31:14.940Z,28.60
2019-03-01T10:32:14.933Z,26.30
2019-03-01T10:33:14.928Z,22.00
2019-03-01T10:34:14.923Z,21.00
2019-03-01T10:35:14.918Z,22.70
2019-03-01T10:36:14.916Z,20.90
2019-03-01T10:37:14.907Z,22.90
2019-03-01T10:38:14.902Z,19.90
2019-03-01T10:39:14.898Z,27.10
2019-03-01T10:40:14.893Z,20.30
2019-03-01T10:41:14.887Z,19.00
2019-03-01T10:42:14.883Z,22.50
2019-03-01T10:43:14.878Z,24.80
2019-03-01T10:44:14.873Z,16.40
2019-03-01T10:45:14.867Z,18.60
2019-03-01T10:46:14.874Z,24.10
2019-03-01T10:47:14.858Z,15.70
2019-03-01T10:48:14.850Z,24.00
2019-03-01T10:49:14.848Z,22.90
2019-03-01T10:50:14.841Z,21.10
2019-03-01T10:51:14.843Z,22.20
2019-03-01T10:52:14.830Z,26.70
2019-03-01T10:53:14.942Z,26.10
2019-03-01T10:54:14.818Z,26.20
2019-03-01T10:55:14.819Z,24.40
2019-03-01T10:56:14.808Z,25.10
2019-03-01T10:57:14.803Z,31.80
2019-03-01T10:58:14.803Z,26.50
2019-03-01T10:59:14.794Z,31.80
2019-03-01T11:00:14.790Z,27.40
2019-03-01T11:01:14.783Z,31.90
2019-03-01T11:02:14.777Z,25.50
2019-03-01T11:03:14.774Z,26.80
2019-03-01T11:04:14.767Z,28.90
2019-03-01T11:05:14.765Z,32.60
2019-03-01T11:06:14.756Z,25.20
2019-03-01T11:07:14.751Z,26.40
2019-03-01T11:08:14.746Z,29.70
2019-03-01T11:09:14.742Z,20.20
2019-03-01T11:10:14.737Z,22.00
2019-03-01T11:11:14.733Z,16.30
2019-03-01T11:12:14.724Z,16.70
2019-03-01T11:13:14.719Z,9.60
2019-03-01T11:14:14.715Z,12.90
2019-03-01T11:15:14.708Z,19.00
2019-03-01T11:16:14.702Z,14.80
2019-03-01T11:17:14.699Z,17.00
2019-03-01T11:18:14.691Z,12.20
2019-03-01T11:19:14.687Z,17.00
2019-03-01T11:20:14.681Z,13.50
2019-03-01T11:21:14.673Z,18.30
2019-03-01T11:22:14.669Z,13.20
2019-03-01T11:23:14.665Z,21.40
2019-03-01T11:24:14.656Z,14.10
2019-03-01T11:25:14.651Z,14.70
2019-03-01T11:26:14.645Z,15.40
2019-03-01T11:27:14.640Z,23.80
2019-03-01T11:28:14.635Z,17.40
2019-03-01T11:29:14.638Z,15.50
2019-03-01T11:30:14.624Z,16.30
2019-03-01T11:31:14.620Z,21.40
2019-03-01T11:32:14.611Z,19.30
2019-03-01T11:33:14.606Z,17.20
2019-03-01T11:34:14.600Z,22.60
2019-03-01T11:35:14.595Z,15.90
2019-03-01T11:36:14.587Z,21.50
2019-03-01T11:37:14.585Z,33.10
2019-03-01T11:38:14.580Z,24.80
2019-03-01T11:39:14.571Z,20.60
2019-03-01T11:40:14.565Z,25.50
2019-03-01T11:41:14.560Z,16.50
2019-03-01T11:42:14.558Z,21.40
2019-03-01T11:43:14.550Z,27.50
2019-03-01T11:44:14.541Z,26.80
2019-03-01T11:45:14.539Z,22.00
2019-03-01T11:46:14.530Z,22.60
2019-03-01T11:47:14.525Z,22.50
2019-03-01T11:48:14.521Z,24.70
2019-03-01T11:49:14.513Z,24.70
2019-03-01T11:50:14.511Z,22.80
2019-03-01T11:51:14.501Z,30.10
2019-03-01T11:52:14.495Z,23.20
2019-03-01T11:53:14.489Z,24.80
2019-03-01T11:54:14.489Z,26.70
2019-03-01T11:55:14.479Z,29.90
2019-03-01T11:56:14.471Z,23.70
2019-03-01T11:57:14.468Z,23.50
2019-03-01T11:58:14.460Z,15.70
2019-03-01T11:59:14.458Z,18.20
2019-03-01T12:00:14.448Z,14.30
2019-03-01T12:01:17.210Z,16.20
2019-03-01T12:02:14.437Z,16.10
2019-03-01T12:03:15.386Z,15.20
2019-03-01T12:04:14.428Z,18.20
2019-03-01T12:05:14.423Z,21.70
2019-03-01T12:06:14.414Z,21.60
2019-03-01T12:07:14.408Z,20.60
2019-03-01T12:08:14.402Z,19.50
2019-03-01T12:09:14.396Z,14.80
2019-03-01T12:10:14.390Z,19.40
2019-03-01T12:11:14.385Z,13.40
2019-03-01T12:12:14.378Z,16.60
2019-03-01T12:13:14.380Z,16.20
2019-03-01T12:14:14.367Z,13.30
2019-03-01T12:15:14.360Z,14.60
2019-03-01T12:16:14.356Z,13.70
2019-03-01T12:17:14.349Z,18.30
2019-03-01T12:18:14.343Z,14.30
2019-03-01T12:19:14.337Z,16.60
2019-03-01T12:20:14.330Z,19.90
2019-03-01T12:21:14.324Z,15.90
2019-03-01T12:22:17.173Z,14.50
2019-03-01T12:23:14.313Z,15.80
2019-03-01T12:24:14.308Z,14.90
2019-03-01T12:25:14.343Z,12.00
2019-03-01T12:26:14.296Z,24.10
2019-03-01T12:27:14.287Z,20.50
2019-03-01T12:28:14.283Z,17.80
2019-03-01T12:29:14.276Z,11.20
2019-03-01T12:30:14.271Z,13.10
2019-03-01T12:31:14.264Z,18.50
2019-03-01T12:32:14.259Z,22.20
2019-03-01T12:33:14.253Z,15.20
2019-03-01T12:34:14.245Z,15.60
2019-03-01T12:35:14.239Z,17.50
2019-03-01T12:36:14.234Z,13.90
2019-03-01T12:37:14.227Z,15.30
2019-03-01T12:38:14.221Z,13.20
2019-03-01T12:39:14.217Z,13.10
2019-03-01T12:40:14.211Z,14.70
2019-03-01T12:41:14.202Z,15.50
2019-03-01T12:42:14.197Z,12.50
2019-03-01T12:43:14.191Z,15.00
2019-03-01T12:44:14.184Z,20.40
2019-03-01T12:45:14.180Z,12.80
2019-03-01T12:46:14.172Z,13.40
2019-03-01T12:47:14.217Z,16.00
2019-03-01T12:48:14.162Z,13.50
2019-03-01T12:49:14.154Z,12.50
2019-03-01T12:50:14.148Z,11.60
2019-03-01T12:51:14.144Z,11.10
2019-03-01T12:52:14.135Z,12.20